createdAt,value
2023-05-20T00:04:15.955Z,99943.19
2023-05-20T00:13:49.551Z,99945.80
2023-05-20T00:23:23.097Z,99935.47
2023-05-20T00:32:56.624Z,99941.34
2023-05-20T00:42:28.310Z,99942.07
2023-05-20T00:52:02.183Z,99937.84
2023-05-20T01:01:35.280Z,99931.05
2023-05-20T01:11:08.973Z,99940.02
2023-05-20T01:20:42.495Z,99933.41
2023-05-20T01:30:17.930Z,99928.13
2023-05-20T01:39:51.311Z,99924.31
2023-05-20T01:49:22.454Z,99929.70
2023-05-20T01:58:56.485Z,99915.55
2023-05-20T02:08:30.356Z,99911.41
2023-05-20T02:18:04.374Z,99905.30
2023-05-20T02:27:39.521Z,99912.34
2023-05-20T02:37:12.803Z,99907.45
2023-05-20T02:46:46.060Z,99909.75
2023-05-20T02:56:17.908Z,99905.59
2023-05-20T03:05:53.010Z,99898.70
2023-05-20T03:15:26.325Z,99893.44
2023-05-20T03:24:57.894Z,99885.52
2023-05-20T03:34:31.180Z,99890.38
2023-05-20T03:44:04.599Z,99883.84
2023-05-20T03:53:39.876Z,99880.29
2023-05-20T04:03:11.003Z,99876.98
2023-05-20T04:12:44.661Z,99871.01
2023-05-20T04:22:18.459Z,99881.33
2023-05-20T04:31:52.236Z,99884.45
2023-05-20T04:41:27.424Z,99880.22
2023-05-20T04:50:59.711Z,99887.91
2023-05-20T05:00:35.336Z,99869.17
2023-05-20T05:10:09.220Z,99859.25
2023-05-20T05:19:43.161Z,99848.48
2023-05-20T05:29:17.086Z,99844.30
2023-05-20T05:30:19.410Z,99841.54
2023-05-20T05:39:54.481Z,99848.02
2023-05-20T05:40:56.818Z,99850.20
2023-05-20T05:50:29.888Z,99844.37
2023-05-20T05:51:32.385Z,99844.63
2023-05-20T05:52:34.859Z,99845.21
2023-05-20T05:53:37.299Z,99843.36
2023-05-20T05:54:39.773Z,99845.14
2023-05-20T05:55:42.249Z,99840.50
2023-05-20T05:56:44.674Z,99843.22
2023-05-20T05:57:48.718Z,99847.02
2023-05-20T05:58:51.065Z,99844.45
2023-05-20T05:59:55.093Z,99839.02
2023-05-20T06:00:57.427Z,99843.95
2023-05-20T06:02:01.462Z,99843.74
2023-05-20T06:03:03.779Z,99838.37
2023-05-20T06:04:06.315Z,99845.27
2023-05-20T06:05:08.606Z,99842.45
2023-05-20T06:06:11.040Z,99837.67
2023-05-20T06:07:13.496Z,99836.94
2023-05-20T06:08:15.901Z,99836.24
2023-05-20T06:09:18.390Z,99835.20
2023-05-20T06:10:22.442Z,99829.78
2023-05-20T06:11:24.767Z,99831.37
2023-05-20T06:12:32.810Z,99834.31
2023-05-20T06:13:36.526Z,99829.41
2023-05-20T06:14:40.429Z,99835.45
2023-05-20T06:15:44.274Z,99831.64
2023-05-20T06:16:46.680Z,99828.20
2023-05-20T06:17:50.677Z,99831.19
2023-05-20T06:18:52.976Z,99835.01
2023-05-20T06:19:55.369Z,99832.71
2023-05-20T06:20:57.821Z,99833.68
2023-05-20T06:22:01.825Z,99829.87
2023-05-20T06:23:04.191Z,99835.64
2023-05-20T06:24:06.710Z,99829.70
2023-05-20T06:25:10.686Z,99832.31
2023-05-20T06:26:12.945Z,99833.30
2023-05-20T06:35:45.604Z,99830.72
2023-05-20T06:36:49.863Z,99823.64
2023-05-20T06:37:53.807Z,99830.30
2023-05-20T06:38:56.141Z,99830.42
2023-05-20T06:39:58.600Z,99831.57
2023-05-20T06:41:01.029Z,99835.99
2023-05-20T06:42:03.561Z,99830.38
2023-05-20T06:43:07.569Z,99832.77
2023-05-20T06:44:09.899Z,99829.94
2023-05-20T06:45:14.004Z,99826.73
2023-05-20T06:46:17.912Z,99823.74
2023-05-20T06:47:21.767Z,99822.46
2023-05-20T06:48:25.726Z,99817.05
2023-05-20T06:49:29.613Z,99821.78
2023-05-20T06:59:00.450Z,99825.58
2023-05-20T07:00:02.980Z,99820.39
2023-05-20T07:01:05.416Z,99823.20
2023-05-20T07:02:08.034Z,99825.59
2023-05-20T07:03:10.368Z,99821.05
2023-05-20T07:04:12.907Z,99830.18
2023-05-20T07:05:16.241Z,99826.53
2023-05-20T07:06:20.232Z,99828.75
2023-05-20T07:07:22.579Z,99830.84
2023-05-20T07:08:25.016Z,99827.23
2023-05-20T07:09:27.478Z,99827.85
2023-05-20T07:10:29.981Z,99823.16
2023-05-20T07:11:32.430Z,99826.83
2023-05-20T07:12:36.603Z,99824.06
2023-05-20T07:13:38.970Z,99831.31
2023-05-20T07:14:41.308Z,99827.01
2023-05-20T07:15:43.785Z,99815.47
2023-05-20T07:16:46.289Z,99826.97
2023-05-20T07:17:50.355Z,99823.81
2023-05-20T07:18:54.264Z,99822.98
2023-05-20T07:19:58.093Z,99821.59
2023-05-20T07:21:02.038Z,99824.30
2023-05-20T07:22:04.337Z,99819.72
2023-05-20T07:23:08.394Z,99816.97
2023-05-20T07:24:10.700Z,99814.98
2023-05-20T07:25:13.141Z,99813.95
2023-05-20T07:26:15.573Z,99815.86
2023-05-20T07:27:18.075Z,99812.39
2023-05-20T07:28:23.139Z,99808.26
2023-05-20T07:29:26.994Z,99804.77
2023-05-20T07:30:29.294Z,99801.44
2023-05-20T07:31:31.737Z,99802.76
2023-05-20T07:32:34.191Z,99797.06
2023-05-20T07:33:37.612Z,99799.30
2023-05-20T07:34:41.642Z,99805.27
2023-05-20T07:35:43.980Z,99803.36
2023-05-20T07:36:46.333Z,99800.27
2023-05-20T07:37:48.804Z,99797.16
2023-05-20T07:39:01.318Z,99802.92
2023-05-20T07:39:54.696Z,99796.77
2023-05-20T07:40:59.782Z,99793.56
2023-05-20T07:42:02.034Z,99793.91
2023-05-20T07:43:04.485Z,99790.99
2023-05-20T07:44:07.897Z,99790.98
2023-05-20T07:45:10.242Z,99792.13
2023-05-20T07:46:12.783Z,99793.97
2023-05-20T07:47:15.270Z,99795.72
2023-05-20T07:48:17.701Z,99791.78
2023-05-20T07:49:20.177Z,99784.95
2023-05-20T07:50:22.589Z,99792.17
2023-05-20T07:51:25.062Z,99794.72
2023-05-20T07:52:27.544Z,99790.72
2023-05-20T07:53:33.751Z,99787.99
2023-05-20T07:54:37.583Z,99794.51
2023-05-20T08:04:09.682Z,99801.50
2023-05-20T08:05:11.907Z,99795.59
2023-05-20T08:06:16.946Z,99787.27
2023-05-20T08:07:20.772Z,99792.48
2023-05-20T08:08:23.108Z,99789.14
2023-05-20T08:09:25.660Z,99794.70
2023-05-20T08:10:28.064Z,99793.31
2023-05-20T08:11:30.500Z,99795.06
2023-05-20T08:12:33.002Z,99788.17
2023-05-20T08:13:37.021Z,99789.50
2023-05-20T08:14:39.485Z,99794.46
2023-05-20T08:15:43.623Z,99795.23
2023-05-20T08:16:45.994Z,99799.89
2023-05-20T08:17:48.457Z,99801.07
2023-05-20T08:18:50.845Z,99799.75
2023-05-20T08:19:53.309Z,99799.38
2023-05-20T08:20:55.740Z,99801.65
2023-05-20T08:21:58.178Z,99799.55
2023-05-20T08:23:00.612Z,99800.22
2023-05-20T08:24:04.658Z,99796.04
2023-05-20T08:25:06.983Z,99793.73
2023-05-20T08:26:11.046Z,99794.14
2023-05-20T08:27:14.953Z,99793.38
2023-05-20T08:28:17.238Z,99787.41
2023-05-20T08:29:22.247Z,99784.78
2023-05-20T08:30:24.474Z,99787.80
2023-05-20T08:31:28.646Z,99789.38
2023-05-20T08:32:30.839Z,99787.38
2023-05-20T08:33:33.195Z,99789.64
2023-05-20T08:34:37.435Z,99786.69
2023-05-20T08:35:39.683Z,99786.88
2023-05-20T08:36:42.170Z,99785.91
2023-05-20T08:37:46.216Z,99779.14
2023-05-20T08:38:48.559Z,99785.52
2023-05-20T08:39:52.631Z,99786.41
2023-05-20T08:40:54.830Z,99783.72
2023-05-20T08:41:57.358Z,99790.06
2023-05-20T08:42:59.780Z,99784.00
2023-05-20T08:44:03.801Z,99788.58
2023-05-20T08:45:06.077Z,99787.13
2023-05-20T08:46:08.523Z,99777.13
2023-05-20T08:47:10.928Z,99778.06
2023-05-20T08:48:15.015Z,99787.36
2023-05-20T08:49:17.318Z,99783.84
2023-05-20T08:50:19.844Z,99779.22
2023-05-20T08:51:24.080Z,99782.85
2023-05-20T08:52:27.782Z,99780.66
2023-05-20T08:53:30.037Z,99777.03
2023-05-20T08:54:32.543Z,99776.86
2023-05-20T08:55:35.186Z,99783.12
2023-05-20T08:56:40.045Z,99781.04
2023-05-20T08:57:42.319Z,99786.38
2023-05-20T08:58:44.759Z,99789.91
2023-05-20T08:59:47.259Z,99792.59
2023-05-20T09:00:49.674Z,99792.63
2023-05-20T09:01:53.981Z,99792.05
2023-05-20T09:02:57.054Z,99793.35
2023-05-20T09:04:00.337Z,99791.67
2023-05-20T09:05:02.718Z,99784.15
2023-05-20T09:06:05.052Z,99788.87
2023-05-20T09:07:07.535Z,99790.49
2023-05-20T09:08:12.666Z,99783.14
2023-05-20T09:09:16.454Z,99792.77
2023-05-20T09:10:18.731Z,99792.01
2023-05-20T09:11:21.166Z,99790.36
2023-05-20T09:12:25.406Z,99789.96
2023-05-20T09:13:27.578Z,99786.41
2023-05-20T09:14:31.627Z,99789.88
2023-05-20T09:15:34.495Z,99791.91
2023-05-20T09:16:38.186Z,99791.35
2023-05-20T09:17:40.454Z,99788.15
2023-05-20T09:18:42.967Z,99790.42
2023-05-20T09:19:46.955Z,99788.25
2023-05-20T09:20:49.268Z,99786.52
2023-05-20T09:21:51.662Z,99790.80
2023-05-20T09:22:54.137Z,99783.77
2023-05-20T09:23:58.085Z,99783.09
2023-05-20T09:25:01.989Z,99780.48
2023-05-20T09:26:06.023Z,99785.42
2023-05-20T09:27:08.364Z,99786.19
2023-05-20T09:28:10.749Z,99787.80
2023-05-20T09:29:13.242Z,99782.04
2023-05-20T09:30:15.719Z,99777.31
2023-05-20T09:31:18.177Z,99779.95
2023-05-20T09:32:22.283Z,99775.53
2023-05-20T09:33:24.631Z,99778.33
2023-05-20T09:34:26.965Z,99781.75
2023-05-20T09:35:29.428Z,99774.17
2023-05-20T09:36:31.991Z,99778.43
2023-05-20T09:37:34.299Z,99774.67
2023-05-20T09:38:36.736Z,99777.47
2023-05-20T09:39:41.148Z,99777.87
2023-05-20T09:40:45.082Z,99780.28
2023-05-20T09:41:47.393Z,99773.11
2023-05-20T09:42:51.387Z,99772.02
2023-05-20T09:43:55.289Z,99770.50
2023-05-20T09:44:57.604Z,99761.98
2023-05-20T09:46:00.127Z,99767.50
2023-05-20T09:47:08.706Z,99766.42
2023-05-20T09:48:13.333Z,99755.08
2023-05-20T09:49:15.518Z,99756.98
2023-05-20T09:50:17.984Z,99753.17
2023-05-20T09:51:22.048Z,99756.08
2023-05-20T09:52:25.995Z,99751.30
2023-05-20T09:53:28.350Z,99756.55
2023-05-20T09:54:30.731Z,99754.91
2023-05-20T09:55:33.149Z,99757.23
2023-05-20T09:56:37.108Z,99753.44
2023-05-20T09:57:39.422Z,99765.38
2023-05-20T09:58:41.907Z,99763.83
2023-05-20T09:59:45.947Z,99761.45
2023-05-20T10:00:48.386Z,99755.55
2023-05-20T10:01:52.420Z,99754.50
2023-05-20T10:02:54.792Z,99754.28
2023-05-20T10:03:58.841Z,99748.73
2023-05-20T10:05:01.068Z,99754.17
2023-05-20T10:06:05.079Z,99751.48
2023-05-20T10:07:07.352Z,99755.44
2023-05-20T10:08:11.384Z,99753.30
2023-05-20T10:09:15.334Z,99750.07
2023-05-20T10:10:17.730Z,99747.52
2023-05-20T10:11:20.183Z,99749.67
2023-05-20T10:12:22.584Z,99749.16
2023-05-20T10:13:25.034Z,99742.88
2023-05-20T10:14:27.516Z,99747.80
2023-05-20T10:15:31.585Z,99745.45
2023-05-20T10:16:35.516Z,99748.40
2023-05-20T10:17:37.879Z,99741.69
2023-05-20T10:18:40.358Z,99742.24
2023-05-20T10:19:42.751Z,99744.56
2023-05-20T10:20:45.237Z,99744.48
2023-05-20T10:21:49.308Z,99738.38
2023-05-20T10:22:51.682Z,99732.92
2023-05-20T10:23:54.120Z,99730.70
2023-05-20T10:24:56.591Z,99731.63
2023-05-20T10:25:59.022Z,99733.94
2023-05-20T10:27:01.458Z,99734.47
2023-05-20T10:28:03.922Z,99737.53
2023-05-20T10:29:06.356Z,99738.57
2023-05-20T10:30:08.868Z,99732.55
2023-05-20T10:31:11.343Z,99733.48
2023-05-20T10:32:13.812Z,99728.78
2023-05-20T10:33:16.260Z,99738.45
2023-05-20T10:34:20.291Z,99735.30
2023-05-20T10:35:22.638Z,99736.56
2023-05-20T10:36:25.120Z,99736.51
2023-05-20T10:37:27.491Z,99740.70
2023-05-20T10:38:29.984Z,99730.22
2023-05-20T10:39:32.479Z,99733.14
2023-05-20T10:40:35.051Z,99726.25
2023-05-20T10:41:37.423Z,99724.09
2023-05-20T10:42:41.498Z,99720.47
2023-05-20T10:43:45.337Z,99723.71
2023-05-20T10:44:48.703Z,99730.72
2023-05-20T10:45:52.510Z,99724.05
2023-05-20T10:47:57.457Z,99727.44
2023-05-20T10:48:59.967Z,99721.83
2023-05-20T10:50:02.319Z,99724.86
2023-05-20T10:51:06.401Z,99717.98
2023-05-20T10:52:08.780Z,99717.94
2023-05-20T10:53:18.773Z,99718.17
2023-05-20T10:54:16.771Z,99720.39
2023-05-20T10:55:20.718Z,99719.86
2023-05-20T10:56:24.674Z,99720.89
2023-05-20T10:57:28.586Z,99714.83
2023-05-20T10:58:31.073Z,99712.02
2023-05-20T10:59:34.972Z,99716.11
2023-05-20T11:00:39.161Z,99715.53
2023-05-20T11:01:42.275Z,99713.58
2023-05-20T11:02:44.657Z,99707.81
2023-05-20T11:03:48.222Z,99701.30
2023-05-20T11:04:52.100Z,99700.64
2023-05-20T11:05:54.393Z,99698.72
2023-05-20T11:06:58.404Z,99705.05
2023-05-20T11:08:00.721Z,99692.90
2023-05-20T11:09:03.137Z,99697.47
2023-05-20T11:10:07.257Z,99696.60
2023-05-20T11:11:09.595Z,99694.19
2023-05-20T11:12:12.048Z,99692.88
2023-05-20T11:13:16.170Z,99693.98
2023-05-20T11:14:18.397Z,99694.26
2023-05-20T11:15:22.468Z,99695.34
2023-05-20T11:16:24.833Z,99688.29
2023-05-20T11:17:28.908Z,99689.34
2023-05-20T11:18:32.869Z,99694.50
2023-05-20T11:19:35.233Z,99694.27
2023-05-20T11:20:37.692Z,99688.17
2023-05-20T11:21:40.098Z,99691.89
2023-05-20T11:22:42.582Z,99689.12
2023-05-20T11:23:45.146Z,99682.34
2023-05-20T11:24:47.570Z,99687.65
2023-05-20T11:25:51.665Z,99682.23
2023-05-20T11:26:55.626Z,99687.36
2023-05-20T11:27:59.535Z,99683.81
2023-05-20T11:29:03.484Z,99676.36
2023-05-20T11:30:07.390Z,99676.68
2023-05-20T11:31:09.748Z,99680.95
2023-05-20T11:32:12.196Z,99683.01
2023-05-20T11:33:16.284Z,99682.05
2023-05-20T11:34:18.610Z,99683.78
2023-05-20T11:35:21.056Z,99688.21
2023-05-20T11:36:27.657Z,99688.27
2023-05-20T11:37:27.625Z,99688.61
2023-05-20T11:38:31.637Z,99695.01
2023-05-20T11:39:33.962Z,99695.80
2023-05-20T11:40:49.526Z,99692.78
2023-05-20T11:41:40.539Z,99681.85
2023-05-20T11:42:44.484Z,99690.94
2023-05-20T11:43:48.454Z,99692.02
2023-05-20T11:44:52.396Z,99686.13
2023-05-20T11:45:54.949Z,99683.71
2023-05-20T11:46:57.321Z,99682.25
2023-05-20T11:47:59.829Z,99685.61
2023-05-20T11:49:03.848Z,99680.38
2023-05-20T11:50:07.758Z,99676.56
2023-05-20T11:51:11.734Z,99677.62
2023-05-20T11:52:14.055Z,99678.41
2023-05-20T11:53:16.478Z,99676.36
2023-05-20T11:54:19.002Z,99676.02
2023-05-20T11:55:23.090Z,99678.95
2023-05-20T11:56:27.061Z,99680.99
2023-05-20T11:57:29.379Z,99681.66
2023-05-20T11:58:31.861Z,99679.13
2023-05-20T11:59:35.913Z,99670.75
2023-05-20T12:00:50.495Z,99673.57
2023-05-20T12:01:43.795Z,99675.58
2023-05-20T12:02:47.761Z,99669.17
2023-05-20T12:03:51.790Z,99663.52
2023-05-20T12:04:55.631Z,99667.27
2023-05-20T12:05:59.514Z,99668.44
2023-05-20T12:07:01.806Z,99663.60
2023-05-20T12:08:05.847Z,99659.17
2023-05-20T12:09:10.052Z,99657.48
2023-05-20T12:10:14.006Z,99660.38
2023-05-20T12:11:17.933Z,99671.92
2023-05-20T12:12:20.309Z,99653.72
2023-05-20T12:13:24.419Z,99655.59
2023-05-20T12:14:28.368Z,99663.89
2023-05-20T12:15:32.229Z,99665.58
2023-05-20T12:16:37.302Z,99664.31
2023-05-20T12:17:39.489Z,99666.40
2023-05-20T12:18:41.975Z,99670.77
2023-05-20T12:19:44.491Z,99663.35
2023-05-20T12:20:48.540Z,99663.69
2023-05-20T12:21:52.453Z,99663.95
2023-05-20T12:22:56.366Z,99662.42
2023-05-20T12:23:58.630Z,99659.94
2023-05-20T12:25:03.697Z,99656.64
2023-05-20T12:26:07.033Z,99666.17
2023-05-20T12:27:09.560Z,99669.52
2023-05-20T12:28:13.371Z,99663.59
2023-05-20T12:29:16.710Z,99656.64
2023-05-20T12:30:20.802Z,99656.28
2023-05-20T12:31:23.277Z,99658.95
2023-05-20T12:32:25.666Z,99662.29
2023-05-20T12:33:27.958Z,99656.80
2023-05-20T12:34:32.058Z,99665.94
2023-05-20T12:35:35.973Z,99656.62
2023-05-20T12:36:38.257Z,99660.60
2023-05-20T12:37:42.317Z,99655.84
2023-05-20T12:38:45.595Z,99650.67
2023-05-20T12:39:48.049Z,99652.06
2023-05-20T12:40:52.131Z,99659.84
2023-05-20T12:41:54.617Z,99655.84
2023-05-20T12:42:58.503Z,99654.86
2023-05-20T12:44:04.675Z,99650.86
2023-05-20T12:45:08.520Z,99654.36
2023-05-20T12:46:12.445Z,99651.54
2023-05-20T12:47:14.927Z,99655.90
2023-05-20T12:48:17.354Z,99655.00
2023-05-20T12:49:20.855Z,99655.41
2023-05-20T12:50:23.249Z,99648.28
2023-05-20T12:51:25.731Z,99662.42
2023-05-20T12:52:28.283Z,99662.59
2023-05-20T12:53:32.400Z,99656.27
2023-05-20T12:54:34.583Z,99662.52
2023-05-20T12:55:38.008Z,99648.64
2023-05-20T12:56:41.929Z,99650.47
2023-05-20T12:57:45.895Z,99653.13
2023-05-20T12:58:48.220Z,99654.56
2023-05-20T12:59:50.891Z,99652.05
2023-05-20T13:00:53.098Z,99645.02
2023-05-20T13:01:55.599Z,99651.64
2023-05-20T13:02:59.745Z,99650.11
2023-05-20T13:04:03.647Z,99650.17
2023-05-20T13:05:07.517Z,99653.17
2023-05-20T13:06:12.477Z,99648.50
2023-05-20T13:07:16.341Z,99644.84
2023-05-20T13:08:20.352Z,99646.63
2023-05-20T13:09:22.701Z,99643.31
2023-05-20T13:10:25.138Z,99647.02
2023-05-20T13:11:27.624Z,99645.83
2023-05-20T13:12:31.738Z,99640.88
2023-05-20T13:13:34.100Z,99647.63
2023-05-20T13:14:36.606Z,99651.77
2023-05-20T13:15:39.068Z,99649.88
2023-05-20T13:16:44.173Z,99646.70
2023-05-20T13:17:48.080Z,99653.45
2023-05-20T13:18:51.971Z,99652.95
2023-05-20T13:19:54.334Z,99650.03
2023-05-20T13:20:56.802Z,99649.94
2023-05-20T13:21:59.292Z,99652.61
2023-05-20T13:23:01.851Z,99648.58
2023-05-20T13:24:06.871Z,99646.00
2023-05-20T13:25:09.180Z,99656.80
2023-05-20T13:26:13.227Z,99662.46
2023-05-20T13:27:18.171Z,99661.02
2023-05-20T13:28:21.988Z,99652.17
2023-05-20T13:29:25.937Z,99656.47
2023-05-20T13:30:29.899Z,99650.78
2023-05-20T13:31:32.269Z,99653.73
2023-05-20T13:32:34.660Z,99650.45
2023-05-20T13:33:38.126Z,99645.73
2023-05-20T13:34:42.155Z,99652.75
2023-05-20T13:35:44.470Z,99644.53
2023-05-20T13:36:48.558Z,99640.94
2023-05-20T13:37:50.898Z,99641.88
2023-05-20T13:38:53.349Z,99638.27
2023-05-20T13:39:55.857Z,99636.05
2023-05-20T13:41:00.928Z,99638.88
2023-05-20T13:42:03.250Z,99628.95
2023-05-20T13:43:05.701Z,99630.42
2023-05-20T13:44:09.806Z,99624.69
2023-05-20T13:45:13.750Z,99624.63
2023-05-20T13:46:16.152Z,99620.67
2023-05-20T13:47:18.599Z,99628.14
2023-05-20T13:48:21.132Z,99617.44
2023-05-20T13:49:25.165Z,99614.92
2023-05-20T13:50:27.530Z,99614.84
2023-05-20T13:51:29.959Z,99614.69
2023-05-20T13:52:32.440Z,99610.14
2023-05-20T13:53:36.549Z,99608.33
2023-05-20T13:54:38.889Z,99613.58
2023-05-20T13:55:41.354Z,99610.97
2023-05-20T13:56:43.860Z,99610.38
2023-05-20T13:57:47.889Z,99612.96
2023-05-20T13:58:50.250Z,99604.81
2023-05-20T13:59:52.748Z,99613.06
2023-05-20T14:00:56.144Z,99607.05
2023-05-20T14:02:00.294Z,99603.60
2023-05-20T14:03:05.271Z,99604.47
2023-05-20T14:04:07.535Z,99602.05
2023-05-20T14:05:11.623Z,99600.73
2023-05-20T14:06:13.970Z,99603.54
2023-05-20T14:07:18.116Z,99606.05
2023-05-20T14:08:20.391Z,99601.77
2023-05-20T14:09:22.875Z,99598.73
2023-05-20T14:10:26.907Z,99596.14
2023-05-20T14:11:30.853Z,99596.84
2023-05-20T14:12:34.785Z,99593.31
2023-05-20T14:13:37.132Z,99599.22
2023-05-20T14:14:39.583Z,99594.33
2023-05-20T14:15:42.006Z,99593.50
2023-05-20T14:16:46.077Z,99602.36
2023-05-20T14:17:48.469Z,99597.48
2023-05-20T14:18:50.885Z,99601.31
2023-05-20T14:19:53.357Z,99601.55
2023-05-20T14:20:55.831Z,99599.56
2023-05-20T14:22:00.869Z,99600.27
2023-05-20T14:23:03.164Z,99600.25
2023-05-20T14:24:06.646Z,99604.20
2023-05-20T14:25:10.648Z,99594.79
2023-05-20T14:26:14.609Z,99599.12
2023-05-20T14:27:17.982Z,99597.39
2023-05-20T14:28:20.413Z,99596.20
2023-05-20T14:29:24.437Z,99590.61
2023-05-20T14:30:26.762Z,99592.81
2023-05-20T14:31:31.801Z,99589.56
2023-05-20T14:32:34.060Z,99591.70
2023-05-20T14:33:38.095Z,99584.54
2023-05-20T14:34:40.416Z,99581.97
2023-05-20T14:35:44.532Z,99587.84
2023-05-20T14:36:48.550Z,99587.76
2023-05-20T14:37:50.843Z,99589.16
2023-05-20T14:38:53.367Z,99582.21
2023-05-20T14:39:55.764Z,99587.41
2023-05-20T14:40:58.432Z,99582.47
2023-05-20T14:42:01.856Z,99580.34
2023-05-20T14:43:09.084Z,99582.14
2023-05-20T14:44:11.332Z,99582.22
2023-05-20T14:45:16.287Z,99579.19
2023-05-20T14:46:18.628Z,99583.30
2023-05-20T14:47:21.146Z,99577.50
2023-05-20T14:48:23.617Z,99573.86
2023-05-20T14:49:35.780Z,99579.42
2023-05-20T14:50:39.414Z,99572.63
2023-05-20T14:51:42.691Z,99571.58
2023-05-20T14:52:46.098Z,99570.07
2023-05-20T14:53:51.000Z,99569.98
2023-05-20T14:54:54.829Z,99563.80
2023-05-20T14:55:57.220Z,99569.27
2023-05-20T14:57:02.228Z,99570.00
2023-05-20T14:58:04.560Z,99573.73
2023-05-20T14:59:06.996Z,99573.67
2023-05-20T15:00:11.016Z,99570.36
2023-05-20T15:01:15.077Z,99573.77
2023-05-20T15:02:17.281Z,99569.59
2023-05-20T15:03:19.878Z,99565.94
2023-05-20T15:04:23.981Z,99567.09
2023-05-20T15:05:27.880Z,99557.58
2023-05-20T15:06:30.189Z,99566.13
2023-05-20T15:07:34.309Z,99565.92
2023-05-20T15:08:36.616Z,99560.80
2023-05-20T15:09:40.084Z,99561.35
2023-05-20T15:10:44.038Z,99565.06
2023-05-20T15:11:46.321Z,99564.76
2023-05-20T15:12:48.749Z,99565.66
2023-05-20T15:13:51.204Z,99566.77
2023-05-20T15:14:53.644Z,99567.00
2023-05-20T15:15:57.942Z,99572.28
2023-05-20T15:17:01.989Z,99571.00
2023-05-20T15:18:04.219Z,99571.31
2023-05-20T15:19:07.705Z,99571.73
2023-05-20T15:20:11.618Z,99574.06
2023-05-20T15:21:15.513Z,99567.95
2023-05-20T15:22:19.415Z,99567.11
2023-05-20T15:23:21.740Z,99566.70
2023-05-20T15:24:26.800Z,99565.91
2023-05-20T15:25:31.655Z,99563.41
2023-05-20T15:26:36.516Z,99560.00
2023-05-20T15:27:40.380Z,99559.22
2023-05-20T15:28:42.724Z,99552.50
2023-05-20T15:29:46.760Z,99550.02
2023-05-20T15:30:50.660Z,99551.95
2023-05-20T15:31:54.611Z,99553.95
2023-05-20T15:32:58.573Z,99549.08
2023-05-20T15:34:03.583Z,99550.91
2023-05-20T15:35:05.737Z,99551.04
2023-05-20T15:36:10.845Z,99552.64
2023-05-20T15:37:13.130Z,99554.08
2023-05-20T15:38:15.585Z,99547.16
2023-05-20T15:39:19.698Z,99543.73
2023-05-20T15:40:22.064Z,99551.43
2023-05-20T15:41:24.580Z,99547.24
2023-05-20T15:42:28.649Z,99552.73
2023-05-20T15:43:32.619Z,99560.47
2023-05-20T15:44:36.453Z,99558.70
2023-05-20T15:45:40.421Z,99553.09
2023-05-20T15:46:44.446Z,99557.48
2023-05-20T15:47:48.349Z,99555.84
2023-05-20T15:48:50.678Z,99550.09
2023-05-20T15:49:53.286Z,99551.33
2023-05-20T15:50:55.600Z,99552.08
2023-05-20T15:52:03.381Z,99553.17
2023-05-20T15:53:04.502Z,99557.33
2023-05-20T15:54:06.831Z,99553.23
2023-05-20T15:55:10.922Z,99557.03
2023-05-20T15:56:13.200Z,99562.96
2023-05-20T15:57:18.218Z,99556.02
2023-05-20T15:58:22.115Z,99557.45
2023-05-20T15:59:26.032Z,99548.41
2023-05-20T16:00:28.375Z,99561.66
2023-05-20T16:01:32.473Z,99552.30
2023-05-20T16:02:36.337Z,99559.33
2023-05-20T16:03:37.302Z,99553.34
2023-05-20T16:04:41.365Z,99550.83
2023-05-20T16:05:43.614Z,99550.05
2023-05-20T16:06:46.133Z,99554.38
2023-05-20T16:07:48.689Z,99548.14
2023-05-20T16:08:52.871Z,99553.73
2023-05-20T16:09:59.001Z,99557.20
2023-05-20T16:11:06.841Z,99558.20
2023-05-20T16:12:08.895Z,99556.33
2023-05-20T16:13:11.290Z,99555.63
2023-05-20T16:14:15.353Z,99556.34
2023-05-20T16:15:17.675Z,99557.92
2023-05-20T16:16:20.203Z,99558.18
2023-05-20T16:17:22.623Z,99557.06
2023-05-20T16:18:26.678Z,99556.19
2023-05-20T16:19:30.119Z,99555.08
2023-05-20T16:20:32.514Z,99552.10
2023-05-20T16:21:34.851Z,99548.34
2023-05-20T16:22:39.012Z,99549.69
2023-05-20T16:23:42.952Z,99546.13
2023-05-20T16:24:45.333Z,99547.52
2023-05-20T16:25:49.402Z,99551.16
2023-05-20T16:26:53.345Z,99550.48
2023-05-20T16:27:55.670Z,99548.86
2023-05-20T16:28:58.144Z,99541.17
2023-05-20T16:30:01.663Z,99539.09
2023-05-20T16:31:04.027Z,99542.91
2023-05-20T16:32:08.162Z,99537.47
2023-05-20T16:33:10.519Z,99536.20
2023-05-20T16:34:12.968Z,99542.75
2023-05-20T16:35:17.051Z,99534.92
2023-05-20T16:36:19.396Z,99536.45
2023-05-20T16:37:21.820Z,99544.47
2023-05-20T16:38:24.240Z,99545.14
2023-05-20T16:39:28.305Z,99538.53
2023-05-20T16:40:32.370Z,99537.82
2023-05-20T16:41:34.518Z,99539.86
2023-05-20T16:42:38.557Z,99541.06
2023-05-20T16:43:40.899Z,99539.09
2023-05-20T16:44:45.173Z,99540.25
2023-05-20T16:45:49.074Z,99544.33
2023-05-20T16:46:53.999Z,99543.25
2023-05-20T16:47:54.006Z,99542.89
2023-05-20T16:48:57.331Z,99545.41
2023-05-20T16:50:01.367Z,99544.37
2023-05-20T16:51:03.675Z,99547.64
2023-05-20T16:52:06.158Z,99550.12
2023-05-20T16:53:08.606Z,99552.77
2023-05-20T16:54:13.893Z,99554.55
2023-05-20T16:55:16.140Z,99555.72
2023-05-20T16:56:18.638Z,99555.33
2023-05-20T16:57:22.686Z,99554.66
2023-05-20T16:58:26.608Z,99556.04
2023-05-20T16:59:28.946Z,99555.13
2023-05-20T17:00:33.131Z,99558.30
2023-05-20T17:01:37.003Z,99558.86
2023-05-20T17:02:40.847Z,99557.39
2023-05-20T17:03:44.800Z,99561.20
2023-05-20T17:04:48.685Z,99560.19
2023-05-20T17:05:52.568Z,99560.24
2023-05-20T17:06:54.926Z,99561.39
2023-05-20T17:07:57.390Z,99565.27
2023-05-20T17:08:59.857Z,99564.58
2023-05-20T17:10:02.351Z,99563.14
2023-05-20T17:11:04.797Z,99566.28
2023-05-20T17:12:08.863Z,99568.61
2023-05-20T17:13:12.833Z,99568.77
2023-05-20T17:14:16.730Z,99570.78
2023-05-20T17:15:19.054Z,99570.13
2023-05-20T17:16:24.126Z,99573.70
2023-05-20T17:17:26.315Z,99571.97
2023-05-20T17:18:28.768Z,99576.91
2023-05-20T17:19:31.287Z,99576.70
2023-05-20T17:20:35.475Z,99581.72
2023-05-20T17:21:39.253Z,99580.91
2023-05-20T17:22:43.202Z,99578.91
2023-05-20T17:23:45.557Z,99582.75
2023-05-20T17:24:47.970Z,99575.44
2023-05-20T17:25:50.457Z,99579.02
2023-05-20T17:26:55.464Z,99577.02
2023-05-20T17:27:57.763Z,99575.67
2023-05-20T17:29:01.738Z,99575.83
2023-05-20T17:30:05.699Z,99573.95
2023-05-20T17:31:07.944Z,99574.55
2023-05-20T17:32:12.037Z,99577.02
2023-05-20T17:33:16.966Z,99571.00
2023-05-20T17:34:20.801Z,99569.48
2023-05-20T17:35:24.673Z,99570.89
2023-05-20T17:44:56.168Z,99576.28
2023-05-20T17:46:00.178Z,99570.16
2023-05-20T17:47:02.478Z,99569.17
2023-05-20T17:48:04.956Z,99572.05
2023-05-20T17:49:07.453Z,99571.36
2023-05-20T17:50:09.879Z,99566.02
2023-05-20T17:51:13.932Z,99568.97
2023-05-20T17:52:17.889Z,99571.41
2023-05-20T17:53:22.298Z,99571.02
2023-05-20T17:54:25.277Z,99570.06
2023-05-20T17:55:29.244Z,99566.39
2023-05-20T17:56:31.515Z,99568.20
2023-05-20T17:57:33.979Z,99567.78
2023-05-20T17:58:38.061Z,99569.94
2023-05-20T17:59:40.469Z,99569.98
2023-05-20T18:00:42.883Z,99567.56
2023-05-20T18:01:47.012Z,99570.27
2023-05-20T18:02:50.985Z,99567.09
2023-05-20T18:03:53.349Z,99574.58
2023-05-20T18:04:57.279Z,99574.98
2023-05-20T18:05:59.642Z,99577.66
2023-05-20T18:07:02.046Z,99570.38